Forside
METAR-TAF:

METAR-TAF

Lufthavne :

Clinton Municipal Airport

Clinton, Iowa, USA

Breddekreds: 41-50N, længdekreds: 090-20W, højde: 216 m

Aktuelle vejr

Denne rapport blev lavet for 26 minutter siden, kl. 06:56 UTC
Vind 13 kt fra østsydøst
Temperatur 10°C
Fugtighed 87%
Tryk 1018 hPa
Sigt: 16.1 km
Overskyet i en højde af 10000 ft

METAR: KCWI 210656Z AUTO 11013KT 10SM OVC100 10/08 A3007 RMK AO2 RAB09E35 SLP210 P0000 T01000078

Tid: 02:22 (07:22 UTC)


TAF: fraværende

Vejrobservationer og prognoser fra mere end 4000 lufthavne (METAR og TAF).

De gule og røde prikker repræsenterer de meteorologiske stationer.

Flyt musen over at se navnet på stationen.

Så klik over at se vejr observationer og prognoser.

At skifte det kort: Klik på de grønne knapper med et sort kors for at zoome ind; på den grønne knap med en bindestreg for at zoome ud; eller på de grønne pile for tilstødende kort.


METAR-TAF: